Time;durP1;ratioP1;P1;durP2;ratioP2;P2;SDS_P1;SDS_P2;PMS_P1;PMS_P2;Temp;Humidity;BMP_temperature;BMP_pressure;BME280_temperature;BME280_humidity;BME280_pressure;Samples;Min_cycle;Max_cycle;Signal;HPM_P1;HPM_P2
2021/01/09 00:00:11;;;;;;;16.42;11.45;;;;;;;4.57;100.00;101124.81;5057201;28;20104;-75
2021/01/09 00:02:57;;;;;;;15.90;11.70;;;;;;;4.40;100.00;101120.25;5056839;28;20044;-76
2021/01/09 00:05:44;;;;;;;18.15;12.65;;;;;;;4.11;100.00;101127.59;5056551;28;20079;-75
2021/01/09 00:08:30;;;;;;;18.90;12.82;;;;;;;4.22;100.00;101139.00;5057959;28;20025;-75
2021/01/09 00:11:15;;;;;;;21.85;14.32;;;;;;;4.18;100.00;101126.84;5058236;28;20021;-75
2021/01/09 00:14:01;;;;;;;19.98;13.77;;;;;;;4.35;100.00;101135.72;5057250;28;20037;-73
2021/01/09 00:16:50;;;;;;;22.42;14.98;;;;;;;4.45;100.00;101153.19;5056944;28;20112;-75
2021/01/09 00:19:36;;;;;;;23.08;15.30;;;;;;;4.46;100.00;101151.47;5056290;28;20560;-75
2021/01/09 00:22:22;;;;;;;26.88;17.38;;;;;;;4.67;100.00;101141.38;5056247;28;20069;-74
2021/01/09 00:25:10;;;;;;;22.35;16.02;;;;;;;4.74;100.00;101156.16;5055902;28;20021;-74
2021/01/09 00:27:56;;;;;;;26.75;17.85;;;;;;;4.70;100.00;101150.06;5057084;28;20032;-75
2021/01/09 00:30:42;;;;;;;29.15;18.83;;;;;;;4.32;100.00;101153.88;5055995;28;20021;-75
2021/01/09 00:33:27;;;;;;;31.10;20.73;;;;;;;4.23;100.00;101147.66;5056232;28;20025;-74
2021/01/09 00:36:13;;;;;;;28.45;18.75;;;;;;;4.48;100.00;101147.16;5056026;28;20059;-75
2021/01/09 00:39:00;;;;;;;29.23;18.75;;;;;;;4.34;100.00;101151.28;5057489;28;20523;-74
2021/01/09 00:41:45;;;;;;;29.00;19.23;;;;;;;4.30;100.00;101146.91;5056428;28;20039;-74
2021/01/09 00:44:31;;;;;;;34.08;21.23;;;;;;;4.39;100.00;101149.63;5056419;28;20459;-74
2021/01/09 00:47:17;;;;;;;32.45;21.33;;;;;;;4.54;100.00;101155.91;5056131;28;20047;-74
2021/01/09 00:50:04;;;;;;;28.77;18.27;;;;;;;4.56;100.00;101141.22;5056023;28;20032;-75
2021/01/09 00:52:50;;;;;;;29.35;19.33;;;;;;;4.29;100.00;101143.44;5056791;28;20466;-74
2021/01/09 00:55:35;;;;;;;30.30;19.75;;;;;;;4.04;100.00;101140.44;5055930;28;20025;-75
2021/01/09 00:58:21;;;;;;;26.90;18.20;;;;;;;4.26;100.00;101148.56;5057190;28;20025;-74
2021/01/09 01:01:07;;;;;;;24.05;16.90;;;;;;;4.43;100.00;101156.59;5067885;28;20066;-75
2021/01/09 01:03:53;;;;;;;27.67;17.85;;;;;;;4.52;100.00;101156.72;5067510;28;20029;-74
2021/01/09 01:06:38;;;;;;;27.65;18.50;;;;;;;4.41;100.00;101161.78;5067980;28;20465;-74
2021/01/09 01:09:24;;;;;;;31.38;20.02;;;;;;;4.06;100.00;101167.28;5062439;28;20370;-75
2021/01/09 01:12:10;;;;;;;30.13;19.77;;;;;;;4.41;100.00;101164.38;5061873;28;20501;-74
2021/01/09 01:14:55;;;;;;;28.17;18.77;;;;;;;4.29;100.00;101161.59;5064407;28;20055;-74
2021/01/09 01:17:47;;;;;;;29.55;18.70;;;;;;;4.53;100.00;101158.47;5064437;28;20029;-74
2021/01/09 01:20:33;;;;;;;44.90;24.65;;;;;;;4.79;100.00;101167.47;5059424;28;20091;-75
2021/01/09 01:23:19;;;;;;;32.25;20.80;;;;;;;4.74;100.00;101174.31;5058355;28;20429;-75
2021/01/09 01:26:06;;;;;;;28.38;18.52;;;;;;;4.57;100.00;101170.63;5056942;28;20094;-75
2021/01/09 01:28:52;;;;;;;28.27;18.27;;;;;;;4.44;100.00;101164.41;5057554;28;20040;-75
2021/01/09 01:31:37;;;;;;;29.20;19.05;;;;;;;4.54;100.00;101165.38;5055818;28;20025;-75
2021/01/09 01:34:23;;;;;;;26.73;17.65;;;;;;;4.59;100.00;101167.19;5054778;28;20064;-74
2021/01/09 01:37:09;;;;;;;28.35;18.92;;;;;;;4.56;100.00;101177.56;5055167;28;20474;-75
2021/01/09 01:39:55;;;;;;;28.27;17.92;;;;;;;4.28;100.00;101172.81;5054880;28;20371;-74
2021/01/09 01:42:40;;;;;;;28.35;18.65;;;;;;;4.23;100.00;101171.84;5055160;28;20020;-75
2021/01/09 01:45:26;;;;;;;27.30;17.83;;;;;;;4.57;100.00;101178.41;5055018;28;20036;-75
2021/01/09 01:48:12;;;;;;;29.75;19.48;;;;;;;4.41;100.00;101186.81;5056037;28;20033;-74
2021/01/09 01:50:58;;;;;;;31.30;20.73;;;;;;;4.09;100.00;101196.72;5057086;28;20450;-74
2021/01/09 01:53:44;;;;;;;31.15;20.08;;;;;;;3.97;100.00;101187.84;5056088;28;20028;-74
2021/01/09 01:56:30;;;;;;;33.10;20.90;;;;;;;4.05;100.00;101194.91;5055312;28;20047;-74
2021/01/09 01:59:15;;;;;;;29.60;19.08;;;;;;;3.82;100.00;101187.63;5055174;28;20036;-74
2021/01/09 02:02:04;;;;;;;31.52;20.40;;;;;;;3.98;100.00;101181.84;5054649;28;20070;-74
2021/01/09 02:05:00;;;;;;;30.95;19.33;;;;;;;4.26;100.00;101192.66;5054102;28;20032;-74
2021/01/09 02:07:46;;;;;;;33.72;21.20;;;;;;;3.94;100.00;101199.06;5054665;28;20406;-75
2021/01/09 02:10:32;;;;;;;28.10;19.02;;;;;;;3.90;100.00;101197.25;5054360;28;20108;-74
2021/01/09 02:13:42;;;;;;;32.25;20.20;;;;;;;3.95;100.00;101205.13;5054527;28;20434;-74
2021/01/09 02:16:29;;;;;;;30.42;19.45;;;;;;;4.10;100.00;101213.16;5056334;28;20021;-74
2021/01/09 02:19:19;;;;;;;29.20;19.13;;;;;;;4.00;100.00;101211.25;5055555;28;20020;-74
2021/01/09 02:22:08;;;;;;;30.23;19.30;;;;;;;3.94;100.00;101211.16;5054830;28;20033;-76
2021/01/09 02:24:54;;;;;;;31.95;21.23;;;;;;;4.08;100.00;101212.25;5055764;28;20033;-74
2021/01/09 02:27:40;;;;;;;31.75;20.48;;;;;;;3.81;100.00;101212.66;5054968;28;20115;-74
2021/01/09 02:30:31;;;;;;;28.70;19.05;;;;;;;3.78;100.00;101215.19;5055320;28;20025;-74
2021/01/09 02:33:20;;;;;;;28.42;18.70;;;;;;;4.01;100.00;101206.09;5054486;28;20055;-75
2021/01/09 02:36:07;;;;;;;27.75;18.42;;;;;;;3.94;100.00;101201.63;5053689;28;20059;-74
2021/01/09 02:38:53;;;;;;;27.42;17.50;;;;;;;4.08;100.00;101201.88;5054527;28;20090;-74
2021/01/09 02:41:40;;;;;;;26.10;17.40;;;;;;;4.05;100.00;101202.69;5053942;28;20079;-74
2021/01/09 02:44:25;;;;;;;26.90;17.50;;;;;;;4.37;100.00;101206.66;5055104;28;20032;-74
2021/01/09 02:47:11;;;;;;;28.85;18.42;;;;;;;4.31;100.00;101210.91;5054301;28;20057;-74
2021/01/09 02:49:57;;;;;;;25.88;17.73;;;;;;;4.14;100.00;101196.81;5053586;28;20051;-74
2021/01/09 02:52:43;;;;;;;25.40;17.70;;;;;;;4.14;100.00;101192.47;5054221;28;20100;-74
2021/01/09 02:55:29;;;;;;;27.35;18.55;;;;;;;4.03;100.00;101211.31;5053858;28;20107;-73
2021/01/09 02:58:14;;;;;;;29.98;19.20;;;;;;;3.83;100.00;101216.16;5054586;28;20021;-74
2021/01/09 03:01:00;;;;;;;30.70;20.00;;;;;;;4.20;100.00;101213.31;5053807;28;20025;-74
2021/01/09 03:03:46;;;;;;;27.13;17.52;;;;;;;3.84;100.00;101211.81;5054782;28;20033;-76
2021/01/09 03:06:32;;;;;;;26.52;18.05;;;;;;;4.07;100.00;101226.91;5054178;28;20021;-75
2021/01/09 03:09:18;;;;;;;28.00;17.88;;;;;;;3.93;100.00;101220.63;5054986;28;20020;-75
2021/01/09 03:12:03;;;;;;;29.92;19.65;;;;;;;4.24;100.00;101209.94;5054824;28;20021;-75
2021/01/09 03:14:49;;;;;;;27.60;18.88;;;;;;;4.26;100.00;101223.78;5053910;28;20474;-75
2021/01/09 03:17:35;;;;;;;29.45;19.27;;;;;;;4.34;100.00;101236.88;5054425;28;20519;-75
2021/01/09 03:20:21;;;;;;;32.00;19.55;;;;;;;4.42;100.00;101230.09;5054422;28;20021;-75
2021/01/09 03:23:06;;;;;;;26.95;18.10;;;;;;;4.35;100.00;101216.13;5054225;28;20028;-74
2021/01/09 03:25:52;;;;;;;28.60;18.05;;;;;;;4.19;100.00;101214.16;5053961;28;20102;-75
2021/01/09 03:28:38;;;;;;;27.48;17.80;;;;;;;4.24;100.00;101209.94;5059254;28;20091;-75
2021/01/09 03:31:26;;;;;;;23.13;16.17;;;;;;;4.52;100.00;101225.06;5058070;28;20025;-75
2021/01/09 03:34:12;;;;;;;23.25;16.35;;;;;;;4.37;100.00;101237.78;5057315;28;20049;-75
2021/01/09 03:36:57;;;;;;;24.75;16.70;;;;;;;4.17;100.00;101239.19;5058100;28;20096;-76
2021/01/09 03:39:43;;;;;;;25.88;17.02;;;;;;;4.46;100.00;101243.13;5057877;28;20040;-76
2021/01/09 03:42:29;;;;;;;26.05;17.42;;;;;;;4.37;100.00;101252.47;5057373;28;20082;-74
2021/01/09 03:45:14;;;;;;;25.60;17.10;;;;;;;4.34;100.00;101248.13;5058297;28;20025;-75
2021/01/09 03:48:00;;;;;;;26.38;17.17;;;;;;;3.97;100.00;101243.16;5057687;28;20455;-74
2021/01/09 03:50:46;;;;;;;27.00;17.77;;;;;;;4.24;100.00;101256.59;5057528;28;20470;-74
2021/01/09 03:53:32;;;;;;;27.23;17.35;;;;;;;4.46;100.00;101257.84;5058040;28;20094;-75
2021/01/09 03:56:17;;;;;;;26.08;17.67;;;;;;;4.62;100.00;101259.78;5057411;28;20036;-75
2021/01/09 03:59:03;;;;;;;28.13;18.85;;;;;;;4.51;100.00;101263.97;5058145;28;20033;-75
2021/01/09 04:01:49;;;;;;;27.10;18.15;;;;;;;4.57;100.00;101275.31;5056302;28;20025;-74
2021/01/09 04:04:34;;;;;;;28.42;17.65;;;;;;;4.37;100.00;101265.44;5056264;28;20112;-73
2021/01/09 04:07:20;;;;;;;26.98;18.45;;;;;;;4.43;100.00;101266.41;5056472;28;20024;-74
2021/01/09 04:10:07;;;;;;;32.65;19.95;;;;;;;4.57;100.00;101267.50;5058313;28;20049;-74
2021/01/09 04:12:52;;;;;;;26.08;17.70;;;;;;;4.32;100.00;101262.78;5057402;28;20025;-74
2021/01/09 04:15:38;;;;;;;27.23;18.88;;;;;;;3.97;100.00;101265.63;5057255;28;20037;-74
2021/01/09 04:18:24;;;;;;;26.55;18.35;;;;;;;4.15;100.00;101276.31;5056889;28;20043;-75
2021/01/09 04:21:10;;;;;;;27.30;18.02;;;;;;;4.61;100.00;101274.50;5056378;28;20024;-75
2021/01/09 04:23:55;;;;;;;31.55;20.48;;;;;;;4.23;100.00;101296.34;5057193;28;20072;-74
2021/01/09 04:26:41;;;;;;;28.05;18.17;;;;;;;3.96;100.00;101298.47;5057171;28;20451;-74
2021/01/09 04:29:27;;;;;;;28.02;18.33;;;;;;;4.24;100.00;101289.44;5056635;28;20473;-74
2021/01/09 04:32:13;;;;;;;30.00;18.60;;;;;;;4.23;100.00;101285.97;5056295;28;20017;-74
2021/01/09 04:34:59;;;;;;;30.20;19.38;;;;;;;4.60;100.00;101298.72;5056442;28;20049;-75
2021/01/09 04:37:45;;;;;;;32.38;20.33;;;;;;;4.42;100.00;101295.81;5055329;28;20033;-75
2021/01/09 04:40:30;;;;;;;28.40;18.40;;;;;;;4.20;100.00;101309.28;5057480;28;20083;-75
2021/01/09 04:43:18;;;;;;;28.48;17.85;;;;;;;4.37;100.00;101309.53;5055644;28;20029;-75
2021/01/09 04:46:04;;;;;;;29.42;19.58;;;;;;;4.06;100.00;101317.66;5057228;28;20462;-75
2021/01/09 04:48:50;;;;;;;33.08;20.33;;;;;;;4.04;100.00;101329.69;5055505;28;20032;-74
2021/01/09 04:51:37;;;;;;;27.58;18.40;;;;;;;3.97;100.00;101328.72;5056898;28;20034;-75
2021/01/09 04:54:25;;;;;;;32.00;20.05;;;;;;;4.04;100.00;101330.59;5056199;28;20028;-75
2021/01/09 04:57:11;;;;;;;27.13;17.70;;;;;;;4.00;100.00;101338.25;5056505;28;20036;-74
2021/01/09 04:59:57;;;;;;;33.47;20.63;;;;;;;4.11;100.00;101345.38;5056606;28;20120;-74
2021/01/09 05:02:44;;;;;;;29.23;17.70;;;;;;;4.09;100.00;101351.38;5055993;28;20026;-74
2021/01/09 05:05:30;;;;;;;31.67;19.85;;;;;;;4.00;100.00;101359.88;5056267;28;20039;-76
2021/01/09 05:08:16;;;;;;;33.83;20.73;;;;;;;4.16;100.00;101356.75;5055173;28;20538;-74
2021/01/09 05:11:03;;;;;;;33.60;19.85;;;;;;;4.02;100.00;101347.81;5056100;28;20438;-74
2021/01/09 05:13:49;;;;;;;28.10;17.90;;;;;;;3.96;100.00;101341.66;5056171;28;20021;-74
2021/01/09 05:16:36;;;;;;;28.52;18.27;;;;;;;4.14;100.00;101358.41;5056025;28;20389;-74
2021/01/09 05:19:27;;;;;;;34.75;21.67;;;;;;;4.09;100.00;101344.50;5055707;28;20055;-73
2021/01/09 05:22:13;;;;;;;30.23;19.80;;;;;;;4.18;100.00;101349.84;5055546;28;20366;-74
2021/01/09 05:25:00;;;;;;;37.00;22.33;;;;;;;4.12;100.00;101357.53;5055561;28;20335;-74
2021/01/09 05:27:46;;;;;;;33.70;20.80;;;;;;;4.16;100.00;101358.44;5055153;28;20048;-74
2021/01/09 05:30:33;;;;;;;33.28;21.23;;;;;;;3.97;100.00;101365.00;5055000;28;20017;-75
2021/01/09 05:33:21;;;;;;;32.92;20.77;;;;;;;4.17;100.00;101376.63;5055408;28;20028;-74
2021/01/09 05:36:08;;;;;;;41.83;26.55;;;;;;;4.33;100.00;101386.44;5054449;28;20144;-73
2021/01/09 05:38:53;;;;;;;35.05;21.05;;;;;;;4.47;100.00;101402.25;5055345;28;20039;-74
2021/01/09 05:41:41;;;;;;;35.65;21.52;;;;;;;4.11;100.00;101386.88;5056408;28;20336;-75
2021/01/09 05:44:34;;;;;;;32.53;20.67;;;;;;;4.06;100.00;101377.28;5054353;28;20465;-75
2021/01/09 05:47:25;;;;;;;34.28;20.85;;;;;;;4.25;100.00;101401.00;5055938;28;20067;-74
2021/01/09 05:50:11;;;;;;;33.58;20.35;;;;;;;4.10;100.00;101424.03;5058811;28;20044;-74
2021/01/09 05:52:57;;;;;;;36.85;21.95;;;;;;;4.32;100.00;101423.59;5056840;28;20483;-74
2021/01/09 05:55:46;;;;;;;40.08;24.25;;;;;;;4.18;100.00;101413.81;5054250;28;20036;-73
2021/01/09 05:58:33;;;;;;;35.63;22.65;;;;;;;4.36;100.00;101408.97;5055647;28;20450;-73
2021/01/09 06:01:26;;;;;;;30.98;20.42;;;;;;;4.15;100.00;101419.78;5054636;28;20124;-75
2021/01/09 06:04:21;;;;;;;35.88;21.60;;;;;;;4.81;100.00;101441.78;5055305;28;20128;-75
2021/01/09 06:07:15;;;;;;;36.60;21.73;;;;;;;4.50;100.00;101430.81;5054704;28;20037;-74
2021/01/09 06:10:08;;;;;;;36.03;21.60;;;;;;;4.35;100.00;101430.56;5055062;28;20112;-74
2021/01/09 06:13:01;;;;;;;28.38;17.67;;;;;;;4.12;100.00;101429.25;5053709;28;20029;-75
2021/01/09 06:15:48;;;;;;;30.58;19.30;;;;;;;4.25;100.00;101439.88;5054534;28;20032;-74
2021/01/09 06:18:34;;;;;;;35.10;22.55;;;;;;;4.32;100.00;101436.56;5054531;28;20363;-74
2021/01/09 06:21:20;;;;;;;29.85;20.10;;;;;;;4.43;100.00;101440.22;5053818;28;20031;-73
2021/01/09 06:24:06;;;;;;;29.88;19.65;;;;;;;4.53;100.00;101452.53;5055106;28;20049;-74
2021/01/09 06:26:53;;;;;;;26.00;17.48;;;;;;;4.17;100.00;101456.13;5054297;28;20025;-75
2021/01/09 06:29:42;;;;;;;27.42;17.83;;;;;;;4.62;100.00;101455.28;5054608;28;20416;-75
2021/01/09 06:32:33;;;;;;;24.02;15.88;;;;;;;4.70;100.00;101466.69;5054437;28;20379;-75
2021/01/09 06:35:20;;;;;;;23.45;15.30;;;;;;;4.92;100.00;101468.81;5053854;28;20110;-74
2021/01/09 06:38:06;;;;;;;25.30;16.08;;;;;;;5.27;100.00;101472.00;5054510;28;20043;-74
2021/01/09 06:40:53;;;;;;;25.95;14.68;;;;;;;5.00;100.00;101474.13;5053746;28;20025;-74
2021/01/09 06:43:42;;;;;;;29.77;18.23;;;;;;;5.16;100.00;101469.19;5054374;28;20032;-74
2021/01/09 06:46:33;;;;;;;21.85;14.15;;;;;;;4.82;100.00;101472.09;5053908;28;20040;-73
2021/01/09 06:49:21;;;;;;;19.23;12.73;;;;;;;4.83;100.00;101485.97;5056496;28;20029;-73
2021/01/09 06:52:07;;;;;;;23.17;15.13;;;;;;;5.32;100.00;101504.97;5062096;28;20021;-74
2021/01/09 06:54:52;;;;;;;19.92;13.15;;;;;;;5.03;100.00;101507.94;5059632;28;20040;-74
2021/01/09 06:57:38;;;;;;;23.05;15.23;;;;;;;4.47;100.00;101519.00;5055713;28;20017;-73
2021/01/09 07:00:24;;;;;;;22.08;13.98;;;;;;;4.87;100.00;101524.09;5055157;28;20060;-73
2021/01/09 07:03:21;;;;;;;25.83;15.82;;;;;;;4.58;100.00;101528.75;5057872;28;20021;-75
2021/01/09 07:06:07;;;;;;;20.45;14.30;;;;;;;5.07;100.00;101533.13;5058635;28;20111;-74
2021/01/09 07:08:54;;;;;;;23.40;14.63;;;;;;;4.95;100.00;101519.94;5058444;28;20036;-74
2021/01/09 07:11:42;;;;;;;20.58;14.15;;;;;;;4.90;100.00;101526.72;5059385;28;20410;-74
2021/01/09 07:14:35;;;;;;;22.45;14.90;;;;;;;5.21;100.00;101545.50;5057475;28;20025;-73
2021/01/09 07:17:25;;;;;;;23.15;14.43;;;;;;;4.54;100.00;101545.09;5060741;28;20516;-74
2021/01/09 07:20:12;;;;;;;22.13;13.68;;;;;;;5.01;100.00;101541.69;5057577;28;20061;-74
2021/01/09 07:23:00;;;;;;;27.45;17.02;;;;;;;5.33;100.00;101550.03;5058025;28;20397;-73
2021/01/09 07:25:47;;;;;;;24.58;17.15;;;;;;;5.23;100.00;101546.38;5057671;28;20048;-74
2021/01/09 07:28:35;;;;;;;20.10;13.45;;;;;;;4.98;100.00;101557.19;5057548;28;20462;-74
2021/01/09 07:31:24;;;;;;;23.52;14.68;;;;;;;4.97;100.00;101557.16;5057578;28;20025;-74
2021/01/09 07:34:12;;;;;;;21.92;14.10;;;;;;;5.17;100.00;101564.47;5058294;28;20021;-75
2021/01/09 07:36:59;;;;;;;19.73;13.80;;;;;;;5.04;100.00;101570.31;5057813;28;20045;-74
2021/01/09 07:39:54;;;;;;;22.90;14.30;;;;;;;5.13;100.00;101572.19;5057761;28;20461;-75
2021/01/09 07:42:41;;;;;;;21.98;14.70;;;;;;;5.33;100.00;101576.00;5056845;28;20072;-77
2021/01/09 07:45:31;;;;;;;24.63;15.52;;;;;;;5.07;100.00;101570.34;5057755;28;20033;-76
2021/01/09 07:48:20;;;;;;;24.58;17.27;;;;;;;5.01;100.00;101570.25;5057536;28;20524;-76
2021/01/09 07:51:06;;;;;;;27.02;16.73;;;;;;;5.08;100.00;101566.91;5057357;28;20094;-75
2021/01/09 07:53:52;;;;;;;24.10;15.55;;;;;;;5.31;100.00;101569.91;5057577;28;20451;-76
2021/01/09 07:56:38;;;;;;;23.17;15.20;;;;;;;4.79;100.00;101591.44;5057085;28;20035;-75
2021/01/09 07:59:24;;;;;;;31.15;20.35;;;;;;;5.47;100.00;101585.78;5056947;28;20036;-74
2021/01/09 08:02:10;;;;;;;24.40;16.20;;;;;;;5.39;100.00;101597.75;5056314;28;20036;-77
2021/01/09 08:05:22;;;;;;;23.75;16.52;;;;;;;5.53;100.00;101610.13;5058961;28;20029;-76
2021/01/09 08:08:08;;;;;;;20.33;13.73;;;;;;;5.24;100.00;101615.66;5058476;28;20032;-76
2021/01/09 08:10:54;;;;;;;20.15;13.73;;;;;;;5.14;100.00;101618.97;5057958;28;20025;-76
2021/01/09 08:13:39;;;;;;;16.75;11.27;;;;;;;4.90;100.00;101609.81;5056406;28;20039;-76
2021/01/09 08:16:25;;;;;;;18.15;11.57;;;;;;;4.71;100.00;101615.50;5057872;28;20057;-76
2021/01/09 08:19:18;;;;;;;17.15;11.65;;;;;;;4.62;100.00;101616.19;5057189;28;20451;-77
2021/01/09 08:22:04;;;;;;;18.20;11.85;;;;;;;5.32;100.00;101615.81;5057786;28;20418;-75
2021/01/09 08:24:50;;;;;;;21.08;12.55;;;;;;;5.03;100.00;101612.69;5056426;28;20025;-75
2021/01/09 08:27:46;;;;;;;16.20;11.45;;;;;;;5.26;100.00;101603.59;5056944;28;20470;-73
2021/01/09 08:30:34;;;;;;;16.15;10.85;;;;;;;5.23;100.00;101623.47;5056647;28;20025;-76
2021/01/09 08:33:19;;;;;;;15.27;10.38;;;;;;;5.27;100.00;101628.72;5057615;28;20055;-76
2021/01/09 08:36:06;;;;;;;17.08;10.65;;;;;;;4.95;100.00;101629.84;5056468;28;20061;-77
2021/01/09 08:38:53;;;;;;;23.33;15.70;;;;;;;5.43;100.00;101626.41;5056632;28;20017;-77
2021/01/09 08:41:40;;;;;;;20.38;13.85;;;;;;;5.56;100.00;101629.25;5058288;28;20029;-78
2021/01/09 08:44:26;;;;;;;25.58;16.73;;;;;;;5.25;100.00;101620.03;5057396;28;20033;-77
2021/01/09 08:47:13;;;;;;;29.55;18.83;;;;;;;5.55;100.00;101619.72;5059031;28;20029;-78
2021/01/09 08:50:04;;;;;;;35.53;20.73;;;;;;;5.50;100.00;101618.72;5058637;28;20020;-77
2021/01/09 08:52:51;;;;;;;31.13;18.50;;;;;;;5.11;100.00;101629.28;5058297;28;20037;-77
2021/01/09 08:55:38;;;;;;;32.42;19.75;;;;;;;5.13;100.00;101630.22;5057655;28;20035;-76
2021/01/09 08:58:24;;;;;;;32.95;20.55;;;;;;;5.38;100.00;101630.66;5057640;28;20371;-76
2021/01/09 09:01:15;;;;;;;41.13;24.98;;;;;;;5.17;100.00;101621.63;5055714;28;20025;-75
2021/01/09 09:04:03;;;;;;;31.75;19.73;;;;;;;5.37;100.00;101621.97;5055688;28;20032;-74
2021/01/09 09:07:04;;;;;;;28.73;17.08;;;;;;;5.27;100.00;101627.88;5054805;28;20037;-74
2021/01/09 09:09:52;;;;;;;28.02;16.02;;;;;;;4.66;100.00;101622.31;5057596;28;20063;-74
2021/01/09 09:12:39;;;;;;;33.45;18.45;;;;;;;4.52;100.00;101632.41;5055888;28;20017;-75
2021/01/09 09:15:31;;;;;;;28.85;17.02;;;;;;;4.85;100.00;101638.31;5057227;28;20028;-75
2021/01/09 09:18:17;;;;;;;31.02;18.73;;;;;;;5.44;100.00;101629.91;5056280;28;20040;-76
2021/01/09 09:21:08;;;;;;;33.08;20.17;;;;;;;5.24;100.00;101627.81;5055727;28;20122;-74
2021/01/09 09:23:54;;;;;;;28.17;15.43;;;;;;;5.29;100.00;101629.66;5055812;28;20098;-75
2021/01/09 09:26:42;;;;;;;31.13;18.13;;;;;;;5.35;100.00;101634.09;5055240;28;20025;-76
2021/01/09 09:29:31;;;;;;;27.10;16.83;;;;;;;5.48;100.00;101636.91;5055962;28;20033;-76
2021/01/09 09:32:24;;;;;;;33.42;20.58;;;;;;;5.53;100.00;101628.31;5056093;28;20029;-74
2021/01/09 09:35:23;;;;;;;26.55;17.50;;;;;;;5.31;100.00;101635.72;5055181;28;20482;-74
2021/01/09 09:38:11;;;;;;;20.42;12.88;;;;;;;5.17;100.00;101626.81;5054225;28;20029;-74
2021/01/09 09:41:04;;;;;;;23.75;14.40;;;;;;;5.38;100.00;101603.81;5054618;28;20029;-74
2021/01/09 09:43:54;;;;;;;26.15;16.52;;;;;;;5.39;100.00;101605.56;5054168;28;20029;-73
2021/01/09 09:46:41;;;;;;;28.65;16.02;;;;;;;5.47;100.00;101600.50;5055904;28;20099;-74
2021/01/09 09:49:27;;;;;;;31.27;17.27;;;;;;;5.25;100.00;101598.38;5055929;28;20039;-74
2021/01/09 09:52:16;;;;;;;32.42;17.60;;;;;;;4.97;100.00;101603.91;5055248;28;20029;-73
2021/01/09 09:55:03;;;;;;;35.80;17.90;;;;;;;5.33;100.00;101599.38;5054508;28;20029;-74
2021/01/09 09:58:05;;;;;;;31.90;17.73;;;;;;;5.54;100.00;101599.75;5054747;28;20103;-74
2021/01/09 10:00:51;;;;;;;30.77;16.77;;;;;;;5.47;100.00;101589.22;5053803;28;20117;-75
2021/01/09 10:03:37;;;;;;;31.42;18.23;;;;;;;5.47;100.00;101594.44;5054513;28;20021;-74
2021/01/09 10:06:33;;;;;;;32.67;17.38;;;;;;;5.83;100.00;101580.31;5054567;28;20025;-74
2021/01/09 10:09:20;;;;;;;31.95;19.00;;;;;;;5.54;100.00;101568.56;5054132;28;20168;-74
2021/01/09 10:12:08;;;;;;;34.05;19.08;;;;;;;5.77;100.00;101574.13;5054412;28;20098;-74
2021/01/09 10:14:54;;;;;;;30.33;20.13;;;;;;;6.06;100.00;101570.28;5053831;28;20017;-74
2021/01/09 10:17:40;;;;;;;50.53;29.85;;;;;;;6.14;100.00;101572.13;5054571;28;20454;-73
2021/01/09 10:20:27;;;;;;;32.95;19.65;;;;;;;5.75;100.00;101571.53;5053369;28;20370;-73
2021/01/09 10:23:13;;;;;;;25.50;16.85;;;;;;;5.26;100.00;101553.34;5054310;28;20103;-74
2021/01/09 10:25:59;;;;;;;30.05;19.00;;;;;;;5.50;100.00;101550.31;5053307;28;20032;-74
2021/01/09 10:28:44;;;;;;;28.63;18.10;;;;;;;5.04;100.00;101543.44;5054910;28;20386;-73
2021/01/09 10:31:35;;;;;;;29.52;18.92;;;;;;;5.80;100.00;101548.16;5053548;28;20059;-74
2021/01/09 10:34:21;;;;;;;32.70;19.92;;;;;;;5.55;100.00;101531.34;5054575;28;20028;-73
2021/01/09 10:37:11;;;;;;;31.67;19.90;;;;;;;5.46;100.00;101530.31;5053433;28;20036;-73
2021/01/09 10:39:57;;;;;;;33.63;20.70;;;;;;;5.85;100.00;101537.03;5053849;28;20032;-73
2021/01/09 10:42:43;;;;;;;33.65;20.80;;;;;;;5.88;100.00;101531.00;5053582;28;20463;-73
2021/01/09 10:45:28;;;;;;;31.65;20.30;;;;;;;5.85;100.00;101538.75;5054511;28;20029;-73
2021/01/09 10:48:15;;;;;;;30.58;19.98;;;;;;;6.06;100.00;101546.88;5054268;28;20151;-74
2021/01/09 10:51:00;;;;;;;29.48;19.75;;;;;;;6.14;100.00;101545.25;5054633;28;20016;-74
2021/01/09 10:53:47;;;;;;;32.08;20.40;;;;;;;6.35;100.00;101556.78;5053508;28;20063;-74
2021/01/09 10:56:33;;;;;;;34.88;21.10;;;;;;;6.31;100.00;101560.19;5053086;28;20404;-74
2021/01/09 10:59:19;;;;;;;33.00;20.30;;;;;;;5.88;100.00;101562.19;5053936;28;20025;-75
2021/01/09 11:02:05;;;;;;;31.88;20.95;;;;;;;6.04;100.00;101566.78;5053917;28;20025;-74
2021/01/09 11:04:51;;;;;;;31.42;20.23;;;;;;;5.86;100.00;101562.16;5054787;28;20406;-74
2021/01/09 11:07:36;;;;;;;32.42;20.60;;;;;;;5.81;100.00;101569.03;5053658;28;20116;-75
2021/01/09 11:10:22;;;;;;;31.45;19.95;;;;;;;5.35;100.00;101577.78;5054300;28;20013;-74
2021/01/09 11:13:08;;;;;;;30.90;19.52;;;;;;;5.88;100.00;101577.81;5054389;28;20435;-73
2021/01/09 11:15:54;;;;;;;33.50;20.42;;;;;;;6.12;100.00;101584.25;5054658;28;20021;-74
2021/01/09 11:18:40;;;;;;;33.13;20.63;;;;;;;5.29;100.00;101582.88;5053683;28;20025;-75
2021/01/09 11:21:25;;;;;;;40.33;25.17;;;;;;;5.86;100.00;101589.91;5052969;28;20037;-75
2021/01/09 11:24:11;;;;;;;34.00;21.02;;;;;;;5.87;100.00;101586.47;5053730;28;20017;-74
2021/01/09 11:27:02;;;;;;;33.75;21.83;;;;;;;6.29;100.00;101595.75;5053330;28;20067;-74
2021/01/09 11:29:48;;;;;;;35.28;22.52;;;;;;;6.29;100.00;101584.47;5054139;28;20037;-75
2021/01/09 11:32:33;;;;;;;30.45;20.35;;;;;;;6.20;100.00;101582.63;5052590;28;20036;-75
2021/01/09 11:35:19;;;;;;;38.58;24.25;;;;;;;6.13;100.00;101575.59;5053494;28;20052;-74
2021/01/09 11:38:05;;;;;;;37.72;22.58;;;;;;;6.19;100.00;101574.78;5053104;28;20029;-74
2021/01/09 11:40:51;;;;;;;40.85;24.20;;;;;;;6.13;100.00;101577.28;5052675;28;20060;-75
2021/01/09 11:43:37;;;;;;;39.38;23.58;;;;;;;6.09;100.00;101576.38;5053266;28;20025;-75
2021/01/09 11:46:26;;;;;;;38.40;23.40;;;;;;;6.37;100.00;101570.72;5053490;28;20106;-75
2021/01/09 11:49:13;;;;;;;42.03;25.05;;;;;;;6.06;100.00;101568.53;5056794;28;20091;-73
2021/01/09 11:52:02;;;;;;;31.25;21.25;;;;;;;6.03;100.00;101575.44;5057016;28;20021;-75
2021/01/09 11:54:48;;;;;;;36.28;22.95;;;;;;;6.16;100.00;101578.22;5055916;28;20340;-74
2021/01/09 11:57:34;;;;;;;33.47;22.23;;;;;;;6.08;100.00;101561.63;5057181;28;20035;-74
2021/01/09 12:00:20;;;;;;;49.65;29.63;;;;;;;6.24;100.00;101562.72;5056666;28;20108;-74
2021/01/09 12:03:05;;;;;;;36.60;22.73;;;;;;;6.19;100.00;101562.63;5056250;28;20033;-75
2021/01/09 12:05:51;;;;;;;41.78;23.85;;;;;;;5.19;100.00;101562.75;5057379;28;20328;-74
2021/01/09 12:08:37;;;;;;;65.82;41.15;;;;;;;5.51;100.00;101568.53;5056082;28;20044;-75
2021/01/09 12:11:23;;;;;;;38.55;25.38;;;;;;;5.66;100.00;101576.56;5056443;28;20017;-74
2021/01/09 12:14:08;;;;;;;42.90;25.05;;;;;;;5.47;100.00;101581.44;5056723;28;20079;-74
2021/01/09 12:16:54;;;;;;;78.50;52.55;;;;;;;5.81;100.00;101583.75;5056617;28;20036;-73
2021/01/09 12:19:40;;;;;;;38.67;24.50;;;;;;;5.87;100.00;101591.66;5056389;28;20497;-72
2021/01/09 12:22:25;;;;;;;35.35;23.17;;;;;;;5.91;100.00;101609.06;5055583;28;20386;-73
2021/01/09 12:25:11;;;;;;;33.72;19.98;;;;;;;5.91;100.00;101609.06;5055967;28;20374;-74
2021/01/09 12:27:59;;;;;;;33.50;20.77;;;;;;;6.22;100.00;101606.06;5056443;28;20025;-74
2021/01/09 12:30:48;;;;;;;36.92;21.92;;;;;;;5.83;100.00;101601.13;5055666;28;20020;-75
2021/01/09 12:33:33;;;;;;;42.20;24.40;;;;;;;5.98;100.00;101584.91;5057899;28;20060;-73
2021/01/09 12:36:19;;;;;;;41.72;23.33;;;;;;;5.88;100.00;101588.19;5055483;28;20059;-74
2021/01/09 12:39:06;;;;;;;45.13;25.85;;;;;;;5.96;100.00;101591.78;5056302;28;20033;-74